Time;durP1;ratioP1;P1;durP2;ratioP2;P2;SDS_P1;SDS_P2;PMS_P1;PMS_P2;Temp;Humidity;BMP_temperature;BMP_pressure;BME280_temperature;BME280_humidity;BME280_pressure;Samples;Min_cycle;Max_cycle;Signal;HPM_P1;HPM_P2
2022/02/08 00:00:13;;;;;;;4.37;2.50;;;2.00;99.90;;;;;;493182;241;27463;-69
2022/02/08 00:02:15;;;;;;;2.78;2.08;;;2.10;99.90;;;;;;493953;241;27522;-69
2022/02/08 00:04:15;;;;;;;3.90;2.65;;;2.00;99.90;;;;;;493903;241;27522;-69
2022/02/08 00:06:41;;;;;;;2.70;2.50;;;2.00;99.90;;;;;;494012;241;28052;-69
2022/02/08 00:08:30;;;;;;;2.75;2.20;;;2.00;99.90;;;;;;492965;241;28018;-69
2022/02/08 00:10:31;;;;;;;2.75;2.22;;;2.00;99.90;;;;;;493974;241;28006;-69
2022/02/08 00:12:32;;;;;;;2.72;2.45;;;2.00;99.90;;;;;;493979;241;27950;-69
2022/02/08 00:14:34;;;;;;;3.42;2.70;;;2.00;99.90;;;;;;494035;241;27493;-69
2022/02/08 00:16:35;;;;;;;4.85;2.45;;;2.00;99.90;;;;;;493967;241;27469;-69
2022/02/08 00:18:36;;;;;;;4.82;2.65;;;2.00;99.90;;;;;;493978;241;27508;-69
2022/02/08 00:20:37;;;;;;;7.50;2.42;;;2.00;99.90;;;;;;493992;241;27455;-69
2022/02/08 00:22:39;;;;;;;3.10;2.35;;;2.00;99.90;;;;;;493999;241;27453;-69
2022/02/08 00:24:40;;;;;;;3.78;2.67;;;2.00;99.90;;;;;;493990;241;27506;-69
2022/02/08 00:26:41;;;;;;;6.57;3.10;;;2.00;99.90;;;;;;493981;241;27612;-69
2022/02/08 00:28:42;;;;;;;3.50;2.37;;;2.00;99.90;;;;;;493947;241;27576;-69
2022/02/08 00:30:44;;;;;;;6.00;2.90;;;2.00;99.90;;;;;;493997;241;27467;-69
2022/02/08 00:32:45;;;;;;;3.22;2.95;;;2.00;99.90;;;;;;494031;241;27452;-69
2022/02/08 00:34:47;;;;;;;5.20;2.60;;;2.00;99.90;;;;;;494008;241;27927;-69
2022/02/08 00:36:47;;;;;;;4.82;2.45;;;1.90;99.90;;;;;;493946;241;27993;-70
2022/02/08 00:38:49;;;;;;;4.47;2.92;;;1.90;99.90;;;;;;494021;241;28057;-69
2022/02/08 00:40:55;;;;;;;5.00;2.83;;;1.90;99.90;;;;;;493948;241;28150;-69
2022/02/08 00:42:51;;;;;;;4.95;3.03;;;1.90;99.90;;;;;;493567;241;27594;-69
2022/02/08 00:45:21;;;;;;;5.12;2.40;;;1.90;99.90;;;;;;494008;241;27544;-69
2022/02/08 00:47:23;;;;;;;3.40;2.42;;;1.80;99.90;;;;;;492376;241;27484;-69
2022/02/08 00:49:16;;;;;;;2.83;2.62;;;1.80;99.90;;;;;;493326;241;27548;-69
2022/02/08 00:51:17;;;;;;;6.65;3.20;;;1.80;99.90;;;;;;494002;241;27545;-69
2022/02/08 00:53:19;;;;;;;4.37;2.90;;;1.80;99.90;;;;;;494001;241;27497;-69
2022/02/08 00:55:20;;;;;;;4.68;2.85;;;1.80;99.90;;;;;;493989;241;27472;-69
2022/02/08 00:57:21;;;;;;;5.30;3.22;;;1.80;99.90;;;;;;493985;241;27564;-69
2022/02/08 00:59:22;;;;;;;3.83;2.60;;;1.80;99.90;;;;;;493997;241;27525;-69
2022/02/08 01:01:24;;;;;;;5.75;2.60;;;1.90;99.90;;;;;;494032;241;27540;-69
2022/02/08 01:03:25;;;;;;;11.90;3.00;;;1.90;99.90;;;;;;493985;241;27497;-69
2022/02/08 01:05:26;;;;;;;6.15;3.35;;;1.90;99.90;;;;;;493992;241;27890;-69
2022/02/08 01:07:27;;;;;;;3.00;2.55;;;1.80;99.90;;;;;;493971;241;27923;-69
2022/02/08 01:09:46;;;;;;;5.37;2.70;;;1.80;99.90;;;;;;493997;241;27977;-69
2022/02/08 01:11:36;;;;;;;10.30;2.75;;;1.70;99.90;;;;;;493051;241;28030;-69
2022/02/08 01:13:38;;;;;;;10.07;3.28;;;1.70;99.90;;;;;;493965;241;27485;-69
2022/02/08 01:15:38;;;;;;;4.70;3.08;;;1.70;99.90;;;;;;493877;241;27541;-70
2022/02/08 01:17:40;;;;;;;6.65;3.60;;;1.60;99.90;;;;;;493992;241;27465;-69
2022/02/08 01:19:49;;;;;;;4.72;3.12;;;1.60;99.90;;;;;;494001;241;27566;-69
2022/02/08 01:21:42;;;;;;;3.55;2.42;;;1.60;99.90;;;;;;493310;241;27520;-68
2022/02/08 01:23:43;;;;;;;4.75;2.53;;;1.60;99.90;;;;;;493975;241;27508;-69
2022/02/08 01:25:49;;;;;;;3.85;3.08;;;1.50;99.90;;;;;;493976;241;27474;-69
2022/02/08 01:27:52;;;;;;;5.53;2.95;;;1.50;99.90;;;;;;493677;241;27465;-69
2022/02/08 01:31:54;;;;;;;5.30;3.10;;;1.50;99.90;;;;;;493983;241;27514;-69
2022/02/08 01:38:27;;;;;;;3.92;3.37;;;1.50;99.90;;;;;;493988;241;28063;-69
2022/02/08 01:43:27;;;;;;;5.55;3.47;;;1.60;99.90;;;;;;493959;241;28120;-68
2022/02/08 01:47:19;;;;;;;5.90;3.25;;;1.60;99.90;;;;;;493984;241;27510;-69
2022/02/08 01:49:29;;;;;;;6.12;3.15;;;1.60;99.90;;;;;;493513;241;27473;-69
2022/02/08 01:51:16;;;;;;;8.48;3.90;;;1.70;99.90;;;;;;492733;241;27529;-68
2022/02/08 01:53:19;;;;;;;4.60;3.00;;;1.70;99.90;;;;;;494010;241;27545;-69
2022/02/08 01:55:18;;;;;;;8.52;3.50;;;1.70;99.90;;;;;;493801;241;27489;-69
2022/02/08 01:57:19;;;;;;;6.30;3.20;;;1.80;99.90;;;;;;494009;241;28422;-69
2022/02/08 01:59:21;;;;;;;3.72;2.75;;;1.90;99.90;;;;;;494000;241;27525;-69
2022/02/08 02:01:22;;;;;;;7.85;3.10;;;1.90;99.90;;;;;;493991;241;27488;-69
2022/02/08 02:03:23;;;;;;;9.25;3.83;;;1.90;99.90;;;;;;493990;241;27501;-69
2022/02/08 02:05:24;;;;;;;9.32;4.15;;;2.00;99.90;;;;;;493968;241;27501;-69
2022/02/08 02:07:26;;;;;;;4.82;2.85;;;2.00;99.90;;;;;;494022;241;27501;-69
2022/02/08 02:09:27;;;;;;;4.32;3.25;;;2.00;99.90;;;;;;493993;241;27552;-69
2022/02/08 02:11:28;;;;;;;8.70;3.97;;;2.00;99.90;;;;;;494018;241;27626;-68
2022/02/08 02:15:37;;;;;;;8.20;3.70;;;2.10;99.90;;;;;;494031;241;27941;-69
2022/02/08 02:17:38;;;;;;;9.55;3.60;;;2.10;99.90;;;;;;494014;241;27499;-69
2022/02/08 02:19:40;;;;;;;6.28;3.40;;;2.10;99.90;;;;;;494013;241;27462;-69
2022/02/08 02:21:41;;;;;;;8.20;3.70;;;2.10;99.90;;;;;;494022;241;27588;-69
2022/02/08 02:23:42;;;;;;;10.02;3.30;;;2.10;99.90;;;;;;494018;241;27496;-68
2022/02/08 02:25:43;;;;;;;6.55;3.95;;;2.20;99.90;;;;;;493990;241;27497;-69
2022/02/08 02:27:45;;;;;;;11.23;3.70;;;2.10;99.90;;;;;;494032;241;27497;-69
2022/02/08 02:29:46;;;;;;;11.10;3.80;;;2.20;99.90;;;;;;494016;241;27552;-69
2022/02/08 02:31:47;;;;;;;12.95;3.97;;;2.20;99.90;;;;;;493995;241;27465;-69
2022/02/08 02:33:49;;;;;;;7.95;3.20;;;2.10;99.90;;;;;;494032;241;27534;-69
2022/02/08 02:35:50;;;;;;;7.60;4.10;;;2.20;99.90;;;;;;493961;241;27997;-69
2022/02/08 02:37:51;;;;;;;6.32;3.12;;;2.20;99.90;;;;;;494017;241;27976;-69
2022/02/08 02:39:52;;;;;;;10.75;3.20;;;2.20;99.90;;;;;;493985;241;27940;-69
2022/02/08 02:41:53;;;;;;;7.22;3.10;;;2.20;99.90;;;;;;494009;241;27495;-69
2022/02/08 02:43:55;;;;;;;7.28;3.62;;;2.20;99.90;;;;;;493998;241;27500;-69
2022/02/08 02:45:59;;;;;;;5.45;3.20;;;2.30;99.90;;;;;;494022;241;27550;-69
2022/02/08 02:47:57;;;;;;;12.43;3.42;;;2.30;99.90;;;;;;493729;241;27500;-69
2022/02/08 02:49:58;;;;;;;6.75;3.40;;;2.30;99.90;;;;;;494008;241;27621;-69
2022/02/08 02:52:00;;;;;;;5.62;2.92;;;2.30;99.90;;;;;;494012;241;27517;-69
2022/02/08 02:54:01;;;;;;;8.48;3.47;;;2.30;99.90;;;;;;493983;241;27527;-69
2022/02/08 02:56:02;;;;;;;6.82;3.35;;;2.30;99.90;;;;;;494034;241;27457;-69
2022/02/08 02:58:06;;;;;;;7.50;3.70;;;2.30;99.90;;;;;;494029;241;27517;-68
2022/02/08 03:00:10;;;;;;;4.68;3.33;;;2.30;99.90;;;;;;493833;237;27916;-69
2022/02/08 03:04:33;;;;;;;7.57;3.20;;;2.40;99.90;;;;;;494045;241;27520;-69
2022/02/08 03:20:06;;;;;;;6.80;3.62;;;2.50;99.90;;;;;;493991;241;27514;-69
2022/02/08 03:22:07;;;;;;;6.60;3.30;;;2.50;99.90;;;;;;493996;241;27834;-69
2022/02/08 03:24:08;;;;;;;6.18;3.40;;;2.50;99.90;;;;;;493974;241;27560;-69
2022/02/08 03:26:09;;;;;;;7.65;3.37;;;2.50;99.90;;;;;;493961;241;27997;-69
2022/02/08 03:28:11;;;;;;;8.07;3.10;;;2.60;99.90;;;;;;493960;241;27897;-69
2022/02/08 03:30:12;;;;;;;16.42;3.70;;;2.60;99.90;;;;;;493954;241;27980;-69
2022/02/08 03:32:15;;;;;;;5.18;3.42;;;2.60;99.90;;;;;;494035;241;27976;-69
2022/02/08 03:34:14;;;;;;;11.82;3.72;;;2.60;99.90;;;;;;493925;241;27484;-69
2022/02/08 03:36:16;;;;;;;10.10;3.47;;;2.60;99.90;;;;;;494000;241;27481;-69
2022/02/08 03:38:21;;;;;;;5.43;3.25;;;2.60;99.90;;;;;;493987;241;27579;-69
2022/02/08 03:40:31;;;;;;;9.80;3.05;;;2.60;99.90;;;;;;493623;241;27589;-69
2022/02/08 03:42:23;;;;;;;6.87;3.67;;;2.60;99.90;;;;;;492958;241;27508;-69
2022/02/08 03:44:30;;;;;;;4.20;3.00;;;2.70;99.90;;;;;;493669;241;27464;-69
2022/02/08 03:46:29;;;;;;;3.70;2.92;;;2.60;99.90;;;;;;493242;241;27502;-69
2022/02/08 03:48:26;;;;;;;7.87;3.53;;;2.70;99.90;;;;;;493384;241;27505;-69
2022/02/08 03:50:24;;;;;;;8.23;2.95;;;2.70;99.90;;;;;;493836;241;27927;-69
2022/02/08 03:52:26;;;;;;;7.45;3.67;;;2.70;99.90;;;;;;494001;241;27977;-69
2022/02/08 03:54:29;;;;;;;9.18;3.30;;;2.70;99.90;;;;;;494005;241;27934;-69
2022/02/08 03:56:28;;;;;;;10.63;3.65;;;2.70;99.90;;;;;;493863;241;29064;-69
2022/02/08 03:58:30;;;;;;;5.85;3.12;;;2.70;99.90;;;;;;493995;241;27581;-69
2022/02/08 04:00:38;;;;;;;13.23;3.97;;;2.70;99.90;;;;;;494012;241;27456;-71
2022/02/08 04:02:39;;;;;;;10.90;3.60;;;2.80;99.90;;;;;;493368;241;27618;-69
2022/02/08 04:04:45;;;;;;;5.97;3.22;;;2.80;99.90;;;;;;493402;241;27529;-69
2022/02/08 04:06:35;;;;;;;7.62;4.15;;;2.80;99.90;;;;;;492912;241;27529;-69
2022/02/08 04:08:36;;;;;;;4.75;2.75;;;2.80;99.90;;;;;;494012;241;27588;-69
2022/02/08 04:10:37;;;;;;;10.63;3.30;;;2.80;99.90;;;;;;494007;241;27479;-69
2022/02/08 04:12:52;;;;;;;7.40;3.62;;;2.80;99.90;;;;;;493989;241;27493;-69
2022/02/08 04:16:50;;;;;;;5.35;3.40;;;2.80;99.90;;;;;;487995;241;27358;-69
2022/02/08 04:19:12;;;;;;;8.48;3.05;;;2.80;99.90;;;;;;493970;241;27577;-69
2022/02/08 04:32:35;;;;;;;7.32;3.40;;;2.90;99.90;;;;;;493967;241;27571;-69
2022/02/08 04:34:29;;;;;;;5.15;3.20;;;2.90;99.90;;;;;;492653;241;27476;-69
2022/02/08 04:38:37;;;;;;;7.65;3.37;;;2.90;99.90;;;;;;494005;241;27631;-69
2022/02/08 04:40:47;;;;;;;9.68;3.30;;;2.90;99.90;;;;;;492880;241;27493;-69
2022/02/08 04:42:48;;;;;;;7.07;3.12;;;2.90;99.90;;;;;;492589;241;27478;-69
2022/02/08 04:45:29;;;;;;;6.37;3.70;;;2.90;99.90;;;;;;492964;241;27457;-69
2022/02/08 04:46:55;;;;;;;7.15;2.70;;;2.90;99.90;;;;;;490323;241;27622;-69
2022/02/08 04:48:53;;;;;;;7.20;3.72;;;2.90;99.90;;;;;;493356;241;27595;-69
2022/02/08 04:50:54;;;;;;;7.75;3.22;;;2.90;99.90;;;;;;493557;241;27500;-69
2022/02/08 04:52:54;;;;;;;7.28;3.55;;;2.90;99.90;;;;;;493568;241;27887;-68
2022/02/08 04:55:14;;;;;;;11.85;3.40;;;2.90;99.90;;;;;;493698;241;27462;-69
2022/02/08 04:59:28;;;;;;;5.07;3.12;;;2.90;99.90;;;;;;493998;241;27472;-69
2022/02/08 05:01:25;;;;;;;6.93;3.00;;;2.80;99.90;;;;;;492975;241;27521;-69
2022/02/08 05:35:55;;;;;;;7.10;3.30;;;2.70;99.90;;;;;;493979;237;27528;-69
2022/02/08 05:44:10;;;;;;;15.00;3.70;;;2.90;99.90;;;;;;493994;241;27892;-69
2022/02/08 05:46:43;;;;;;;7.80;3.87;;;2.90;99.90;;;;;;493420;241;29105;-69
2022/02/08 05:48:10;;;;;;;9.07;3.50;;;2.90;99.90;;;;;;492182;241;27449;-69
2022/02/08 05:50:08;;;;;;;6.68;3.72;;;2.90;99.90;;;;;;493424;241;27482;-69
2022/02/08 05:54:15;;;;;;;6.30;3.75;;;3.00;99.90;;;;;;493787;241;27531;-69
2022/02/08 05:56:18;;;;;;;10.13;3.17;;;3.00;99.90;;;;;;493860;241;27950;-69
2022/02/08 05:58:17;;;;;;;13.27;4.10;;;3.00;99.90;;;;;;493716;241;27925;-69
2022/02/08 06:00:18;;;;;;;5.68;4.07;;;3.00;99.90;;;;;;493996;241;27984;-69
2022/02/08 06:02:21;;;;;;;6.72;3.70;;;3.00;99.90;;;;;;493994;241;27811;-69
2022/02/08 06:04:21;;;;;;;7.87;3.42;;;3.10;99.90;;;;;;493991;241;27459;-69
2022/02/08 06:06:24;;;;;;;9.02;3.58;;;3.10;99.90;;;;;;494028;241;27514;-69
2022/02/08 06:08:23;;;;;;;7.40;3.50;;;3.10;99.90;;;;;;493860;241;27499;-69
2022/02/08 06:10:26;;;;;;;11.07;3.20;;;3.10;99.90;;;;;;494000;241;27498;-69
2022/02/08 06:12:26;;;;;;;8.88;4.03;;;3.20;99.90;;;;;;493973;241;27513;-69
2022/02/08 06:14:29;;;;;;;10.27;4.22;;;3.20;99.90;;;;;;494019;241;27556;-69
2022/02/08 06:16:28;;;;;;;12.80;4.43;;;3.20;99.90;;;;;;493921;241;27501;-69
2022/02/08 06:18:30;;;;;;;12.27;4.32;;;3.20;99.90;;;;;;493971;241;27476;-70
2022/02/08 06:20:31;;;;;;;7.85;3.45;;;3.20;99.90;;;;;;493991;241;28053;-69
2022/02/08 06:22:32;;;;;;;17.40;5.15;;;3.30;99.90;;;;;;494041;241;27983;-69
2022/02/08 06:24:33;;;;;;;7.05;3.85;;;3.30;99.90;;;;;;494020;241;29048;-69
2022/02/08 06:26:35;;;;;;;9.45;4.07;;;3.30;99.90;;;;;;494021;241;27516;-69
2022/02/08 06:28:36;;;;;;;8.88;3.83;;;3.30;99.90;;;;;;493968;241;27544;-69
2022/02/08 06:30:37;;;;;;;7.45;3.55;;;3.30;99.90;;;;;;493998;241;27557;-69
2022/02/08 06:32:38;;;;;;;8.90;3.90;;;3.30;99.90;;;;;;494002;241;27482;-69
2022/02/08 06:34:40;;;;;;;9.75;3.70;;;3.40;99.90;;;;;;494015;241;27460;-69
2022/02/08 06:36:42;;;;;;;10.35;4.07;;;3.30;99.90;;;;;;493997;241;27545;-69
2022/02/08 06:38:42;;;;;;;8.40;4.30;;;3.40;99.90;;;;;;493981;241;27484;-69
2022/02/08 06:40:47;;;;;;;8.98;3.65;;;3.40;99.90;;;;;;494026;241;27646;-69
2022/02/08 06:42:45;;;;;;;9.13;4.05;;;3.40;99.90;;;;;;493766;241;27593;-69
2022/02/08 06:44:46;;;;;;;4.80;3.60;;;3.40;99.90;;;;;;493980;241;27906;-69
2022/02/08 06:46:47;;;;;;;8.52;3.55;;;3.40;99.90;;;;;;493986;241;28002;-69
2022/02/08 06:48:49;;;;;;;7.55;4.10;;;3.30;99.90;;;;;;493984;241;28695;-69
2022/02/08 06:50:52;;;;;;;5.93;3.55;;;3.30;99.90;;;;;;494008;241;27984;-69
2022/02/08 06:52:51;;;;;;;8.70;3.67;;;3.30;99.90;;;;;;493841;241;27499;-69
2022/02/08 06:54:52;;;;;;;10.63;4.37;;;3.30;99.90;;;;;;494007;241;27449;-69
2022/02/08 06:56:53;;;;;;;9.05;3.95;;;3.30;99.90;;;;;;494001;241;27529;-69
2022/02/08 06:59:03;;;;;;;7.55;4.05;;;3.30;99.90;;;;;;494025;241;27495;-69
2022/02/08 07:01:02;;;;;;;7.93;4.47;;;3.20;99.90;;;;;;493326;241;27555;-69
2022/02/08 07:02:58;;;;;;;14.18;4.20;;;3.20;99.90;;;;;;493520;241;27532;-69
2022/02/08 07:04:58;;;;;;;7.37;3.97;;;3.20;99.90;;;;;;493926;241;27485;-69
2022/02/08 07:07:00;;;;;;;6.95;4.05;;;3.20;99.90;;;;;;494003;241;27520;-69
2022/02/08 07:09:01;;;;;;;6.57;3.85;;;3.20;99.90;;;;;;494046;241;27510;-69
2022/02/08 07:11:02;;;;;;;6.97;4.00;;;3.30;99.90;;;;;;494026;241;27920;-69
2022/02/08 07:13:06;;;;;;;8.50;3.55;;;3.30;99.90;;;;;;494011;241;27999;-69
2022/02/08 07:15:10;;;;;;;7.43;3.30;;;3.30;99.90;;;;;;493861;241;28992;-69
2022/02/08 07:17:06;;;;;;;9.40;4.55;;;3.30;99.90;;;;;;493556;241;27932;-69
2022/02/08 07:19:07;;;;;;;5.22;3.20;;;3.30;99.90;;;;;;494017;241;27589;-69
2022/02/08 07:21:09;;;;;;;12.07;3.12;;;3.30;99.90;;;;;;494008;241;27573;-69
2022/02/08 07:23:10;;;;;;;9.05;3.20;;;3.40;99.90;;;;;;494009;241;27496;-69
2022/02/08 07:25:11;;;;;;;10.48;3.35;;;3.40;99.90;;;;;;493995;241;27463;-69
2022/02/08 07:27:12;;;;;;;7.12;3.58;;;3.50;99.90;;;;;;494016;241;27517;-69
2022/02/08 07:29:14;;;;;;;7.12;3.60;;;3.50;99.90;;;;;;494022;241;27516;-69
2022/02/08 07:31:25;;;;;;;9.98;2.78;;;3.50;99.90;;;;;;494011;241;27462;-69
2022/02/08 07:33:16;;;;;;;9.50;3.05;;;3.60;99.90;;;;;;493250;241;27504;-70
2022/02/08 07:35:29;;;;;;;12.57;3.75;;;3.60;99.90;;;;;;494018;241;27459;-69
2022/02/08 07:37:44;;;;;;;7.45;3.85;;;3.70;99.90;;;;;;493503;241;29072;-69
2022/02/08 07:39:38;;;;;;;10.65;2.78;;;3.80;99.90;;;;;;492384;241;27506;-69
2022/02/08 07:41:38;;;;;;;6.60;2.95;;;3.80;99.90;;;;;;492966;241;27450;-69
2022/02/08 07:43:37;;;;;;;6.40;3.17;;;3.80;99.90;;;;;;493812;241;27571;-69
2022/02/08 07:45:38;;;;;;;7.43;3.20;;;3.80;99.90;;;;;;494003;241;27481;-69
2022/02/08 07:47:40;;;;;;;4.97;2.50;;;3.80;99.90;;;;;;494014;241;27502;-70
2022/02/08 07:49:41;;;;;;;10.10;2.75;;;3.80;99.90;;;;;;494039;241;27479;-69
2022/02/08 07:51:43;;;;;;;10.57;3.10;;;3.80;99.90;;;;;;494034;241;27576;-69
2022/02/08 07:53:44;;;;;;;6.95;2.95;;;3.90;99.90;;;;;;493983;241;27442;-69
2022/02/08 07:55:45;;;;;;;5.95;2.75;;;3.90;99.90;;;;;;494012;241;27999;-69
2022/02/08 07:57:46;;;;;;;7.22;3.33;;;3.90;99.90;;;;;;494023;241;27977;-69
2022/02/08 07:59:47;;;;;;;12.37;3.83;;;3.90;99.90;;;;;;494017;241;27949;-69
2022/02/08 08:01:49;;;;;;;10.05;3.47;;;3.90;99.90;;;;;;493969;241;29069;-69
2022/02/08 08:03:50;;;;;;;8.77;3.03;;;4.00;99.90;;;;;;493995;241;27537;-69
2022/02/08 08:05:51;;;;;;;5.97;2.83;;;4.00;99.90;;;;;;494050;241;27461;-69
2022/02/08 08:07:52;;;;;;;12.88;3.10;;;4.00;99.90;;;;;;494022;241;27505;-69
2022/02/08 08:09:54;;;;;;;8.85;2.80;;;4.00;99.90;;;;;;494023;241;27453;-69
2022/02/08 08:11:55;;;;;;;9.30;2.97;;;4.10;99.90;;;;;;494032;241;27505;-69
2022/02/08 08:16:12;;;;;;;8.57;3.33;;;4.10;99.90;;;;;;494030;241;27488;-69
2022/02/08 08:18:15;;;;;;;10.27;3.87;;;4.10;99.90;;;;;;492979;241;27462;-69
2022/02/08 08:20:03;;;;;;;8.98;3.30;;;4.10;99.90;;;;;;492909;241;27572;-69
2022/02/08 08:22:04;;;;;;;6.62;3.12;;;4.00;99.90;;;;;;494000;241;27519;-69
2022/02/08 08:24:06;;;;;;;18.48;3.95;;;3.90;99.90;;;;;;494029;241;27549;-69
2022/02/08 08:26:07;;;;;;;8.85;3.25;;;3.90;99.90;;;;;;494023;241;27501;-69
2022/02/08 08:28:09;;;;;;;10.45;3.15;;;3.90;99.90;;;;;;493999;241;27475;-69
2022/02/08 08:30:09;;;;;;;12.20;3.12;;;3.80;99.90;;;;;;493899;241;27513;-69
2022/02/08 08:32:10;;;;;;;6.50;2.87;;;3.80;99.90;;;;;;493977;241;28798;-69
2022/02/08 08:34:13;;;;;;;10.98;3.05;;;3.80;99.90;;;;;;494022;241;27911;-69
2022/02/08 08:36:14;;;;;;;8.90;3.20;;;3.80;99.90;;;;;;493861;241;27998;-69
2022/02/08 08:38:17;;;;;;;8.95;3.22;;;3.70;99.90;;;;;;493980;241;27592;-69
2022/02/08 08:40:22;;;;;;;8.25;3.10;;;3.70;99.90;;;;;;493748;237;27501;-69
2022/02/08 08:42:38;;;;;;;6.87;2.83;;;3.70;99.90;;;;;;493475;241;27521;-69
2022/02/08 08:49:29;;;;;;;9.23;3.30;;;3.70;99.90;;;;;;494024;241;28055;-69
2022/02/08 08:51:32;;;;;;;10.30;3.30;;;3.70;99.90;;;;;;492573;241;27506;-69
2022/02/08 08:53:23;;;;;;;8.95;3.53;;;3.70;99.90;;;;;;492944;241;27551;-69
2022/02/08 08:55:22;;;;;;;8.65;3.25;;;3.70;99.90;;;;;;493830;241;27510;-69
2022/02/08 08:57:23;;;;;;;15.10;3.40;;;3.80;99.90;;;;;;494026;241;27900;-69
2022/02/08 08:59:24;;;;;;;9.65;3.58;;;3.80;99.90;;;;;;493995;241;28089;-69
2022/02/08 09:01:25;;;;;;;7.22;3.40;;;3.80;99.90;;;;;;493999;241;28066;-69
2022/02/08 09:03:27;;;;;;;8.70;3.53;;;3.80;99.90;;;;;;493981;241;27470;-69
2022/02/08 09:05:28;;;;;;;10.00;3.45;;;3.80;99.90;;;;;;494002;241;27481;-69
2022/02/08 09:07:30;;;;;;;4.60;3.08;;;3.80;99.90;;;;;;494021;241;27556;-69
2022/02/08 09:09:32;;;;;;;4.57;2.80;;;3.90;99.90;;;;;;493915;241;27489;-69
2022/02/08 09:11:49;;;;;;;8.15;3.25;;;3.90;99.90;;;;;;493906;241;27521;-69
2022/02/08 09:13:43;;;;;;;5.37;3.03;;;3.90;99.90;;;;;;492733;241;27989;-69
2022/02/08 09:15:57;;;;;;;4.07;2.85;;;3.90;99.90;;;;;;493320;241;27919;-69
2022/02/08 09:22:33;;;;;;;8.85;3.03;;;4.00;99.90;;;;;;494005;241;27996;-69
2022/02/08 09:29:06;;;;;;;4.15;2.90;;;3.90;99.90;;;;;;493989;241;27478;-69
2022/02/08 09:31:05;;;;;;;4.20;3.05;;;4.00;99.90;;;;;;493524;241;27619;-69
2022/02/08 09:33:03;;;;;;;10.07;2.70;;;3.90;99.90;;;;;;493771;241;27462;-69
2022/02/08 09:35:06;;;;;;;6.37;2.75;;;3.90;99.90;;;;;;493985;241;27507;-69
2022/02/08 09:37:06;;;;;;;3.85;2.60;;;3.90;99.90;;;;;;493848;241;27493;-69
2022/02/08 09:39:07;;;;;;;4.32;2.75;;;4.00;99.90;;;;;;493994;241;27521;-69
2022/02/08 09:41:08;;;;;;;3.87;2.70;;;4.00;99.90;;;;;;493986;241;27533;-69
2022/02/08 09:43:09;;;;;;;5.78;2.80;;;4.00;99.90;;;;;;493968;241;27913;-69
2022/02/08 09:45:18;;;;;;;2.78;2.53;;;4.10;99.90;;;;;;493969;241;28069;-69
2022/02/08 09:47:18;;;;;;;6.97;2.90;;;4.10;99.90;;;;;;493669;241;27604;-69
2022/02/08 09:49:16;;;;;;;4.37;2.95;;;4.10;99.90;;;;;;493712;241;27611;-69
2022/02/08 09:51:17;;;;;;;6.90;2.60;;;4.10;99.90;;;;;;493987;241;27455;-69
2022/02/08 09:53:24;;;;;;;5.10;2.80;;;4.10;99.90;;;;;;493981;241;27500;-69
2022/02/08 09:55:20;;;;;;;7.60;2.87;;;4.20;99.90;;;;;;493522;241;27587;-69
2022/02/08 09:57:21;;;;;;;6.97;3.22;;;4.20;99.90;;;;;;494026;241;27576;-69
2022/02/08 09:59:22;;;;;;;4.68;3.70;;;4.20;99.90;;;;;;494005;241;27495;-69
2022/02/08 10:01:24;;;;;;;7.82;2.50;;;4.30;99.90;;;;;;493984;241;27459;-69
2022/02/08 10:03:25;;;;;;;5.70;2.95;;;4.30;99.90;;;;;;493981;241;27966;-69
2022/02/08 10:05:26;;;;;;;3.80;2.90;;;4.30;99.90;;;;;;494011;241;28277;-69
2022/02/08 10:07:28;;;;;;;5.12;2.60;;;4.30;99.90;;;;;;493965;241;27949;-69
2022/02/08 10:09:29;;;;;;;3.83;2.40;;;4.30;99.90;;;;;;493893;241;27989;-69
2022/02/08 10:11:41;;;;;;;3.30;2.37;;;4.30;99.90;;;;;;493993;241;27583;-69
2022/02/08 10:21:42;;;;;;;7.47;2.80;;;4.30;99.90;;;;;;494032;241;27508;-69
2022/02/08 10:22:37;;;;;;;10.27;4.15;;;4.30;99.90;;;;;;489866;241;29036;-69
2022/02/08 10:24:38;;;;;;;6.70;3.00;;;4.30;99.90;;;;;;494033;241;27490;-69
2022/02/08 10:28:57;;;;;;;11.10;4.75;;;4.30;99.90;;;;;;493977;241;27509;-69
2022/02/08 10:31:59;;;;;;;14.40;8.95;;;4.30;99.90;;;;;;493719;241;28489;-69
2022/02/08 10:37:40;;;;;;;18.27;10.23;;;4.40;99.90;;;;;;494013;241;27623;-69
2022/02/08 10:39:40;;;;;;;13.05;8.90;;;4.40;99.90;;;;;;493848;241;27951;-69
2022/02/08 10:41:40;;;;;;;11.35;7.30;;;4.30;99.90;;;;;;493961;241;27926;-68
2022/02/08 10:43:42;;;;;;;8.45;5.85;;;4.30;99.90;;;;;;494014;241;27927;-69
2022/02/08 10:45:43;;;;;;;9.35;4.68;;;4.30;99.90;;;;;;494028;241;27522;-69
2022/02/08 10:47:48;;;;;;;5.40;3.80;;;4.30;99.90;;;;;;494002;241;27468;-69
2022/02/08 10:49:48;;;;;;;8.95;4.30;;;4.30;99.90;;;;;;493889;241;27504;-69
2022/02/08 10:51:53;;;;;;;10.80;4.22;;;4.30;99.90;;;;;;494007;241;27563;-69
2022/02/08 10:54:01;;;;;;;5.60;3.53;;;4.30;99.90;;;;;;493650;241;27541;-69
2022/02/08 10:56:06;;;;;;;6.50;3.30;;;4.30;99.90;;;;;;493361;241;28104;-69
2022/02/08 10:58:12;;;;;;;10.20;3.60;;;4.30;99.90;;;;;;493527;241;27500;-69
2022/02/08 11:00:06;;;;;;;6.53;3.25;;;4.30;99.90;;;;;;493190;241;27609;-69
2022/02/08 11:02:16;;;;;;;5.80;3.78;;;4.40;99.90;;;;;;493932;241;27617;-69
2022/02/08 11:04:14;;;;;;;5.12;3.87;;;4.40;99.90;;;;;;493214;241;27974;-69
2022/02/08 11:06:17;;;;;;;7.45;3.10;;;4.40;99.90;;;;;;493402;241;28030;-69
2022/02/08 11:10:46;;;;;;;4.60;3.20;;;4.40;99.90;;;;;;494035;241;28003;-69
2022/02/08 11:12:33;;;;;;;6.43;4.18;;;4.50;99.90;;;;;;492564;241;29022;-69
2022/02/08 11:14:43;;;;;;;6.40;3.20;;;4.50;99.90;;;;;;493802;241;28045;-69
2022/02/08 11:16:49;;;;;;;8.35;3.53;;;4.60;99.90;;;;;;493141;241;27484;-69
2022/02/08 11:18:44;;;;;;;5.07;3.20;;;4.70;99.90;;;;;;492623;241;27490;-69
2022/02/08 11:20:44;;;;;;;5.30;3.70;;;4.80;99.90;;;;;;493436;241;27911;-69
2022/02/08 11:22:50;;;;;;;6.57;3.55;;;4.80;99.90;;;;;;493522;241;27960;-68
2022/02/08 11:24:44;;;;;;;5.65;3.58;;;4.80;99.90;;;;;;493458;241;27538;-69
2022/02/08 11:26:46;;;;;;;5.65;3.17;;;4.80;99.90;;;;;;494012;241;27501;-69
2022/02/08 11:28:49;;;;;;;3.87;3.17;;;4.90;99.90;;;;;;493964;241;27975;-69
2022/02/08 11:30:54;;;;;;;6.53;3.45;;;5.00;99.90;;;;;;493761;241;28002;-69
2022/02/08 11:33:01;;;;;;;9.27;3.60;;;4.90;99.90;;;;;;493544;241;27918;-69
2022/02/08 11:48:13;;;;;;;7.03;4.28;;;4.80;99.90;;;;;;493990;241;27636;-69
2022/02/08 11:51:04;;;;;;;6.15;3.22;;;4.70;99.90;;;;;;493352;241;27537;-69
2022/02/08 11:56:39;;;;;;;9.48;3.80;;;4.80;99.90;;;;;;493993;241;27469;-69
2022/02/08 11:58:32;;;;;;;6.85;3.42;;;4.80;99.90;;;;;;492588;241;27943;-68
2022/02/08 12:00:44;;;;;;;7.32;4.22;;;4.80;99.90;;;;;;493342;241;27936;-69
2022/02/08 12:02:57;;;;;;;8.93;3.90;;;4.80;99.90;;;;;;493700;241;27588;-69
2022/02/08 12:05:24;;;;;;;8.48;3.85;;;4.90;99.90;;;;;;493110;241;28677;-69
2022/02/08 12:08:55;;;;;;;4.70;3.45;;;4.90;99.90;;;;;;493997;241;27526;-69
2022/02/08 12:11:06;;;;;;;6.90;3.62;;;5.00;99.90;;;;;;493611;241;27476;-69
2022/02/08 12:33:29;;;;;;;7.85;3.40;;;5.00;99.90;;;;;;488015;241;27825;-69
2022/02/08 12:52:07;;;;;;;6.90;3.97;;;5.10;99.90;;;;;;493959;241;27498;-68
2022/02/08 12:55:50;;;;;;;5.78;3.50;;;5.10;99.90;;;;;;494014;241;27463;-68
2022/02/08 12:59:56;;;;;;;3.95;3.50;;;5.20;99.90;;;;;;494009;241;27485;-68
2022/02/08 13:04:05;;;;;;;7.65;4.15;;;5.20;99.90;;;;;;494055;241;27473;-68
2022/02/08 14:05:33;;;;;;;4.87;3.35;;;5.60;99.90;;;;;;494002;241;27514;-68
2022/02/08 14:07:04;;;;;;;3.60;3.30;;;5.60;99.90;;;;;;492165;241;27468;-68
2022/02/08 14:09:16;;;;;;;5.78;3.05;;;5.60;99.90;;;;;;493539;241;27498;-68
2022/02/08 14:11:38;;;;;;;5.40;3.53;;;5.60;99.90;;;;;;492881;241;27582;-68
2022/02/08 14:15:48;;;;;;;4.47;3.40;;;5.70;99.90;;;;;;494020;241;29752;-69
2022/02/08 14:17:40;;;;;;;3.58;3.28;;;5.60;99.90;;;;;;492530;241;27465;-69
2022/02/08 14:19:51;;;;;;;3.58;3.17;;;5.60;99.90;;;;;;493340;241;27521;-70
2022/02/08 14:24:12;;;;;;;6.72;3.40;;;5.60;99.90;;;;;;494022;241;27471;-69
2022/02/08 14:30:43;;;;;;;5.97;2.95;;;5.60;99.90;;;;;;494001;241;27956;-68
2022/02/08 14:32:46;;;;;;;4.75;3.00;;;5.70;99.90;;;;;;492976;241;27585;-68
2022/02/08 14:35:06;;;;;;;4.93;2.78;;;5.60;99.90;;;;;;493092;241;27504;-68
2022/02/08 14:37:03;;;;;;;3.55;2.90;;;5.70;99.90;;;;;;492246;241;27509;-68
2022/02/08 14:57:40;;;;;;;6.12;3.33;;;5.70;99.90;;;;;;494005;241;27508;-68
2022/02/08 15:08:20;;;;;;;3.37;3.00;;;5.70;99.90;;;;;;494062;241;27510;-68
2022/02/08 15:10:22;;;;;;;2.75;2.55;;;5.70;99.90;;;;;;493651;241;27929;-68
2022/02/08 15:12:20;;;;;;;2.72;2.53;;;5.70;99.90;;;;;;493630;241;27997;-68
2022/02/08 15:14:25;;;;;;;2.70;2.50;;;5.70;99.90;;;;;;493880;240;27765;-68
2022/02/08 15:16:27;;;;;;;3.00;2.80;;;5.70;99.90;;;;;;493520;241;27475;-69
2022/02/08 15:18:28;;;;;;;2.78;2.55;;;5.70;99.90;;;;;;493727;241;28006;-68